sensor_id;sensor_type;location;lat;lon;timestamp;temperature;humidity
26272;DHT22;13997;48.902;12.472;2022-12-18T00:00:31;89.90;2176.00
26272;DHT22;13997;48.902;12.472;2022-12-18T00:02:57;90.00;2176.00
26272;DHT22;13997;48.902;12.472;2022-12-18T00:05:23;89.90;2176.00
26272;DHT22;13997;48.902;12.472;2022-12-18T00:07:48;89.90;2176.00
26272;DHT22;13997;48.902;12.472;2022-12-18T00:10:14;89.90;2176.00
26272;DHT22;13997;48.902;12.472;2022-12-18T00:12:40;89.80;2176.00
26272;DHT22;13997;48.902;12.472;2022-12-18T00:15:05;89.80;2176.00
26272;DHT22;13997;48.902;12.472;2022-12-18T00:17:31;89.90;2176.00
26272;DHT22;13997;48.902;12.472;2022-12-18T00:19:57;89.90;2176.00
26272;DHT22;13997;48.902;12.472;2022-12-18T00:22:22;89.90;2176.00
26272;DHT22;13997;48.902;12.472;2022-12-18T00:24:48;89.90;2176.00
26272;DHT22;13997;48.902;12.472;2022-12-18T00:27:13;89.90;2176.00
26272;DHT22;13997;48.902;12.472;2022-12-18T00:29:39;89.90;2176.00
26272;DHT22;13997;48.902;12.472;2022-12-18T00:32:04;89.90;2176.00
26272;DHT22;13997;48.902;12.472;2022-12-18T00:34:30;89.90;2176.00
26272;DHT22;13997;48.902;12.472;2022-12-18T00:36:56;89.90;2176.00
26272;DHT22;13997;48.902;12.472;2022-12-18T00:39:21;89.90;2176.00
26272;DHT22;13997;48.902;12.472;2022-12-18T00:41:47;89.90;2176.00
26272;DHT22;13997;48.902;12.472;2022-12-18T00:44:31;89.90;2176.00
26272;DHT22;13997;48.902;12.472;2022-12-18T00:46:56;89.80;2176.00
26272;DHT22;13997;48.902;12.472;2022-12-18T00:49:22;89.90;2176.00
26272;DHT22;13997;48.902;12.472;2022-12-18T00:51:48;89.80;2176.00
26272;DHT22;13997;48.902;12.472;2022-12-18T00:54:14;89.80;2176.00
26272;DHT22;13997;48.902;12.472;2022-12-18T00:56:40;89.80;2176.00
26272;DHT22;13997;48.902;12.472;2022-12-18T00:59:06;89.80;2176.00
26272;DHT22;13997;48.902;12.472;2022-12-18T01:01:32;89.80;2176.00
26272;DHT22;13997;48.902;12.472;2022-12-18T01:03:59;89.80;2176.00
26272;DHT22;13997;48.902;12.472;2022-12-18T01:06:24;89.80;2176.00
26272;DHT22;13997;48.902;12.472;2022-12-18T01:08:50;89.80;2176.00
26272;DHT22;13997;48.902;12.472;2022-12-18T01:11:19;89.90;2176.00
26272;DHT22;13997;48.902;12.472;2022-12-18T01:13:45;89.90;2176.00
26272;DHT22;13997;48.902;12.472;2022-12-18T01:16:12;89.90;2176.00
26272;DHT22;13997;48.902;12.472;2022-12-18T01:18:37;89.90;2176.00
26272;DHT22;13997;48.902;12.472;2022-12-18T01:21:08;90.00;2176.00
26272;DHT22;13997;48.902;12.472;2022-12-18T01:23:34;90.00;2176.00
26272;DHT22;13997;48.902;12.472;2022-12-18T01:26:08;90.00;2176.00
26272;DHT22;13997;48.902;12.472;2022-12-18T01:28:33;90.10;2176.00
26272;DHT22;13997;48.902;12.472;2022-12-18T01:31:19;90.10;2176.00
26272;DHT22;13997;48.902;12.472;2022-12-18T01:33:45;90.00;2176.00
26272;DHT22;13997;48.902;12.472;2022-12-18T01:36:31;90.00;2176.00
26272;DHT22;13997;48.902;12.472;2022-12-18T01:39:03;90.00;2176.00
26272;DHT22;13997;48.902;12.472;2022-12-18T01:41:30;90.00;2176.00
26272;DHT22;13997;48.902;12.472;2022-12-18T01:47:17;90.00;2176.00
26272;DHT22;13997;48.902;12.472;2022-12-18T01:49:44;90.00;2176.00
26272;DHT22;13997;48.902;12.472;2022-12-18T01:52:09;90.00;2176.00
26272;DHT22;13997;48.902;12.472;2022-12-18T01:54:35;90.00;2176.00
26272;DHT22;13997;48.902;12.472;2022-12-18T01:57:00;90.00;2176.00
26272;DHT22;13997;48.902;12.472;2022-12-18T01:59:27;90.00;2176.00
26272;DHT22;13997;48.902;12.472;2022-12-18T02:01:53;90.00;2176.00
26272;DHT22;13997;48.902;12.472;2022-12-18T02:04:20;90.00;2176.00
26272;DHT22;13997;48.902;12.472;2022-12-18T02:06:47;90.00;2176.00
26272;DHT22;13997;48.902;12.472;2022-12-18T02:09:20;90.00;2176.00
26272;DHT22;13997;48.902;12.472;2022-12-18T02:11:55;90.10;2176.00
26272;DHT22;13997;48.902;12.472;2022-12-18T02:14:54;90.00;2176.00
26272;DHT22;13997;48.902;12.472;2022-12-18T02:17:23;90.00;2176.00
26272;DHT22;13997;48.902;12.472;2022-12-18T02:25:42;90.00;2176.00
26272;DHT22;13997;48.902;12.472;2022-12-18T02:28:15;90.10;2176.00
26272;DHT22;13997;48.902;12.472;2022-12-18T02:30:44;90.10;2176.00
26272;DHT22;13997;48.902;12.472;2022-12-18T02:33:11;90.10;2176.00
26272;DHT22;13997;48.902;12.472;2022-12-18T02:35:38;90.10;2176.00
26272;DHT22;13997;48.902;12.472;2022-12-18T02:38:06;90.10;2176.00
26272;DHT22;13997;48.902;12.472;2022-12-18T02:40:32;90.10;2176.00
26272;DHT22;13997;48.902;12.472;2022-12-18T02:43:11;90.10;2176.00
26272;DHT22;13997;48.902;12.472;2022-12-18T02:45:56;90.10;2176.00
26272;DHT22;13997;48.902;12.472;2022-12-18T02:48:26;90.10;2176.00
26272;DHT22;13997;48.902;12.472;2022-12-18T02:51:24;90.10;2176.00
26272;DHT22;13997;48.902;12.472;2022-12-18T02:53:58;90.10;2176.00
26272;DHT22;13997;48.902;12.472;2022-12-18T02:56:35;90.10;2176.00
26272;DHT22;13997;48.902;12.472;2022-12-18T03:01:43;90.10;2176.00
26272;DHT22;13997;48.902;12.472;2022-12-18T03:04:37;90.10;2176.00
26272;DHT22;13997;48.902;12.472;2022-12-18T03:07:10;90.10;2176.00
26272;DHT22;13997;48.902;12.472;2022-12-18T03:09:39;90.10;2176.00
26272;DHT22;13997;48.902;12.472;2022-12-18T03:15:34;90.10;2176.00
26272;DHT22;13997;48.902;12.472;2022-12-18T03:17:42;90.10;2176.00
26272;DHT22;13997;48.902;12.472;2022-12-18T03:20:15;90.10;2176.00
26272;DHT22;13997;48.902;12.472;2022-12-18T03:22:43;90.10;2176.00
26272;DHT22;13997;48.902;12.472;2022-12-18T03:25:13;90.20;2176.00
26272;DHT22;13997;48.902;12.472;2022-12-18T03:27:42;90.20;2176.00
26272;DHT22;13997;48.902;12.472;2022-12-18T03:30:12;90.20;2176.00
26272;DHT22;13997;48.902;12.472;2022-12-18T03:33:07;90.20;2176.00
26272;DHT22;13997;48.902;12.472;2022-12-18T03:35:38;90.20;2176.00
26272;DHT22;13997;48.902;12.472;2022-12-18T03:38:05;90.30;2176.00
26272;DHT22;13997;48.902;12.472;2022-12-18T03:40:41;90.30;2176.00
26272;DHT22;13997;48.902;12.472;2022-12-18T03:46:29;90.30;2176.00
26272;DHT22;13997;48.902;12.472;2022-12-18T03:54:39;90.30;2176.00
26272;DHT22;13997;48.902;12.472;2022-12-18T03:57:18;90.40;2176.00
26272;DHT22;13997;48.902;12.472;2022-12-18T03:59:46;90.30;2176.00
26272;DHT22;13997;48.902;12.472;2022-12-18T04:02:15;90.30;2176.00
26272;DHT22;13997;48.902;12.472;2022-12-18T04:04:42;90.30;2176.00
26272;DHT22;13997;48.902;12.472;2022-12-18T04:07:08;90.30;2176.00
26272;DHT22;13997;48.902;12.472;2022-12-18T04:09:36;90.40;2176.00
26272;DHT22;13997;48.902;12.472;2022-12-18T04:12:04;90.30;2176.00
26272;DHT22;13997;48.902;12.472;2022-12-18T04:14:29;90.40;2176.00
26272;DHT22;13997;48.902;12.472;2022-12-18T04:16:55;90.40;2176.00
26272;DHT22;13997;48.902;12.472;2022-12-18T04:19:20;90.40;2176.00
26272;DHT22;13997;48.902;12.472;2022-12-18T04:21:46;90.30;2176.00
26272;DHT22;13997;48.902;12.472;2022-12-18T04:24:12;90.30;2176.00
26272;DHT22;13997;48.902;12.472;2022-12-18T04:26:37;90.40;2176.00
26272;DHT22;13997;48.902;12.472;2022-12-18T04:29:03;90.40;2176.00
26272;DHT22;13997;48.902;12.472;2022-12-18T04:31:29;90.40;2176.00
26272;DHT22;13997;48.902;12.472;2022-12-18T04:33:55;90.40;2176.00
26272;DHT22;13997;48.902;12.472;2022-12-18T04:36:20;90.50;2176.00
26272;DHT22;13997;48.902;12.472;2022-12-18T04:38:46;90.50;2176.00
26272;DHT22;13997;48.902;12.472;2022-12-18T04:41:12;90.50;2176.00
26272;DHT22;13997;48.902;12.472;2022-12-18T04:43:37;90.50;2176.00
26272;DHT22;13997;48.902;12.472;2022-12-18T04:46:07;90.50;2176.00
26272;DHT22;13997;48.902;12.472;2022-12-18T04:48:33;90.50;2176.00
26272;DHT22;13997;48.902;12.472;2022-12-18T04:50:59;90.50;2176.00
26272;DHT22;13997;48.902;12.472;2022-12-18T04:53:25;115.20;2176.00
26272;DHT22;13997;48.902;12.472;2022-12-18T04:55:50;115.30;2176.00
26272;DHT22;13997;48.902;12.472;2022-12-18T04:58:16;115.30;2176.00
26272;DHT22;13997;48.902;12.472;2022-12-18T05:00:42;115.30;2176.00
26272;DHT22;13997;48.902;12.472;2022-12-18T05:03:07;115.30;2176.00
26272;DHT22;13997;48.902;12.472;2022-12-18T05:05:35;115.30;2176.00
26272;DHT22;13997;48.902;12.472;2022-12-18T05:08:00;115.30;2176.00
26272;DHT22;13997;48.902;12.472;2022-12-18T05:10:26;115.30;2176.00
26272;DHT22;13997;48.902;12.472;2022-12-18T05:12:52;115.40;2176.00
26272;DHT22;13997;48.902;12.472;2022-12-18T05:15:26;115.50;2176.00
26272;DHT22;13997;48.902;12.472;2022-12-18T05:17:52;115.50;2176.00
26272;DHT22;13997;48.902;12.472;2022-12-18T05:20:18;115.50;2176.00
26272;DHT22;13997;48.902;12.472;2022-12-18T05:22:44;115.50;2176.00
26272;DHT22;13997;48.902;12.472;2022-12-18T05:25:09;115.50;2176.00
26272;DHT22;13997;48.902;12.472;2022-12-18T05:27:35;115.40;2176.00
26272;DHT22;13997;48.902;12.472;2022-12-18T05:30:00;115.40;2176.00
26272;DHT22;13997;48.902;12.472;2022-12-18T05:32:26;115.40;2176.00
26272;DHT22;13997;48.902;12.472;2022-12-18T05:34:52;115.40;2176.00
26272;DHT22;13997;48.902;12.472;2022-12-18T05:37:17;115.40;2176.00
26272;DHT22;13997;48.902;12.472;2022-12-18T05:39:43;115.40;2176.00
26272;DHT22;13997;48.902;12.472;2022-12-18T05:42:09;115.40;2176.00
26272;DHT22;13997;48.902;12.472;2022-12-18T05:44:35;115.30;2176.00
26272;DHT22;13997;48.902;12.472;2022-12-18T05:47:00;115.30;2176.00
26272;DHT22;13997;48.902;12.472;2022-12-18T05:49:32;115.30;2176.00
26272;DHT22;13997;48.902;12.472;2022-12-18T05:51:57;115.30;2176.00
26272;DHT22;13997;48.902;12.472;2022-12-18T05:54:23;115.30;2176.00
26272;DHT22;13997;48.902;12.472;2022-12-18T05:56:49;115.30;2176.00
26272;DHT22;13997;48.902;12.472;2022-12-18T05:59:14;115.30;2176.00
26272;DHT22;13997;48.902;12.472;2022-12-18T06:01:40;115.30;2176.00
26272;DHT22;13997;48.902;12.472;2022-12-18T06:04:06;115.40;2176.00
26272;DHT22;13997;48.902;12.472;2022-12-18T06:06:31;115.50;2176.00
26272;DHT22;13997;48.902;12.472;2022-12-18T06:08:57;115.50;2176.00
26272;DHT22;13997;48.902;12.472;2022-12-18T06:11:25;115.50;2176.00
26272;DHT22;13997;48.902;12.472;2022-12-18T06:13:54;115.50;2176.00
26272;DHT22;13997;48.902;12.472;2022-12-18T06:16:20;115.50;2176.00
26272;DHT22;13997;48.902;12.472;2022-12-18T06:18:46;115.60;2176.00
26272;DHT22;13997;48.902;12.472;2022-12-18T06:21:13;115.60;2176.00
26272;DHT22;13997;48.902;12.472;2022-12-18T06:23:39;115.60;2176.00
26272;DHT22;13997;48.902;12.472;2022-12-18T06:26:09;115.60;2176.00
26272;DHT22;13997;48.902;12.472;2022-12-18T06:28:35;115.50;2176.00
26272;DHT22;13997;48.902;12.472;2022-12-18T06:31:03;115.50;2176.00
26272;DHT22;13997;48.902;12.472;2022-12-18T06:33:28;115.50;2176.00
26272;DHT22;13997;48.902;12.472;2022-12-18T06:35:59;115.50;2176.00
26272;DHT22;13997;48.902;12.472;2022-12-18T06:38:25;115.40;2176.00
26272;DHT22;13997;48.902;12.472;2022-12-18T06:40:50;115.40;2176.00
26272;DHT22;13997;48.902;12.472;2022-12-18T06:43:16;115.40;2176.00
26272;DHT22;13997;48.902;12.472;2022-12-18T06:45:42;115.40;2176.00
26272;DHT22;13997;48.902;12.472;2022-12-18T06:48:07;115.40;2176.00
26272;DHT22;13997;48.902;12.472;2022-12-18T06:50:33;115.40;2176.00
26272;DHT22;13997;48.902;12.472;2022-12-18T06:52:59;115.40;2176.00
26272;DHT22;13997;48.902;12.472;2022-12-18T06:55:25;115.40;2176.00
26272;DHT22;13997;48.902;12.472;2022-12-18T06:57:50;115.30;2176.00
26272;DHT22;13997;48.902;12.472;2022-12-18T07:00:16;115.30;2176.00
26272;DHT22;13997;48.902;12.472;2022-12-18T07:02:42;115.40;2176.00
26272;DHT22;13997;48.902;12.472;2022-12-18T07:05:08;115.40;2176.00
26272;DHT22;13997;48.902;12.472;2022-12-18T07:07:34;115.40;2176.00
26272;DHT22;13997;48.902;12.472;2022-12-18T07:10:00;115.40;2176.00
26272;DHT22;13997;48.902;12.472;2022-12-18T07:12:28;115.40;2176.00
26272;DHT22;13997;48.902;12.472;2022-12-18T07:14:54;115.40;2176.00
26272;DHT22;13997;48.902;12.472;2022-12-18T07:17:19;115.50;2176.00
26272;DHT22;13997;48.902;12.472;2022-12-18T07:19:45;115.50;2176.00
26272;DHT22;13997;48.902;12.472;2022-12-18T07:22:11;115.50;2176.00
26272;DHT22;13997;48.902;12.472;2022-12-18T07:24:36;115.50;2176.00
26272;DHT22;13997;48.902;12.472;2022-12-18T07:27:02;115.40;2176.00
26272;DHT22;13997;48.902;12.472;2022-12-18T07:29:27;115.50;2176.00
26272;DHT22;13997;48.902;12.472;2022-12-18T07:31:54;115.40;2176.00
26272;DHT22;13997;48.902;12.472;2022-12-18T07:34:19;115.40;2176.00
26272;DHT22;13997;48.902;12.472;2022-12-18T07:36:45;115.40;2176.00
26272;DHT22;13997;48.902;12.472;2022-12-18T07:39:11;115.40;2176.00
26272;DHT22;13997;48.902;12.472;2022-12-18T07:41:42;115.40;2176.00
26272;DHT22;13997;48.902;12.472;2022-12-18T07:44:11;115.40;2176.00
26272;DHT22;13997;48.902;12.472;2022-12-18T07:46:37;115.30;2176.00
26272;DHT22;13997;48.902;12.472;2022-12-18T07:49:03;115.30;2176.00
26272;DHT22;13997;48.902;12.472;2022-12-18T07:51:28;115.30;2176.00
26272;DHT22;13997;48.902;12.472;2022-12-18T07:53:54;115.30;2176.00
26272;DHT22;13997;48.902;12.472;2022-12-18T07:56:20;115.40;2176.00
26272;DHT22;13997;48.902;12.472;2022-12-18T07:58:46;115.30;2176.00
26272;DHT22;13997;48.902;12.472;2022-12-18T08:01:12;115.30;2176.00
26272;DHT22;13997;48.902;12.472;2022-12-18T08:03:39;115.30;2176.00
26272;DHT22;13997;48.902;12.472;2022-12-18T08:06:07;115.30;2176.00
26272;DHT22;13997;48.902;12.472;2022-12-18T08:08:34;115.30;2176.00
26272;DHT22;13997;48.902;12.472;2022-12-18T08:11:01;115.30;2176.00
26272;DHT22;13997;48.902;12.472;2022-12-18T08:13:27;115.30;2176.00
26272;DHT22;13997;48.902;12.472;2022-12-18T08:16:02;115.30;2176.00
26272;DHT22;13997;48.902;12.472;2022-12-18T08:18:29;115.30;2176.00
26272;DHT22;13997;48.902;12.472;2022-12-18T08:20:55;115.30;2176.00
26272;DHT22;13997;48.902;12.472;2022-12-18T08:23:21;115.30;2176.00
26272;DHT22;13997;48.902;12.472;2022-12-18T08:25:47;115.30;2176.00
26272;DHT22;13997;48.902;12.472;2022-12-18T08:28:13;115.30;2176.00
26272;DHT22;13997;48.902;12.472;2022-12-18T08:30:38;115.30;2176.00
26272;DHT22;13997;48.902;12.472;2022-12-18T08:33:04;115.20;2176.00
26272;DHT22;13997;48.902;12.472;2022-12-18T08:35:30;90.50;2176.00
26272;DHT22;13997;48.902;12.472;2022-12-18T08:37:55;115.20;2176.00
26272;DHT22;13997;48.902;12.472;2022-12-18T08:40:21;115.20;2176.00
26272;DHT22;13997;48.902;12.472;2022-12-18T08:42:46;115.20;2176.00
26272;DHT22;13997;48.902;12.472;2022-12-18T08:45:30;115.20;2176.00
26272;DHT22;13997;48.902;12.472;2022-12-18T08:47:57;90.50;2176.00
26272;DHT22;13997;48.902;12.472;2022-12-18T08:50:23;90.40;2176.00
26272;DHT22;13997;48.902;12.472;2022-12-18T08:52:48;90.40;2176.00
26272;DHT22;13997;48.902;12.472;2022-12-18T08:55:14;90.40;2176.00
26272;DHT22;13997;48.902;12.472;2022-12-18T08:57:39;90.40;2176.00
26272;DHT22;13997;48.902;12.472;2022-12-18T09:00:05;90.40;2176.00
26272;DHT22;13997;48.902;12.472;2022-12-18T09:02:31;90.40;2176.00
26272;DHT22;13997;48.902;12.472;2022-12-18T09:04:57;90.40;2176.00
26272;DHT22;13997;48.902;12.472;2022-12-18T09:07:22;90.30;2176.00
26272;DHT22;13997;48.902;12.472;2022-12-18T09:09:48;90.30;2176.00
26272;DHT22;13997;48.902;12.472;2022-12-18T09:12:13;90.30;2176.00
26272;DHT22;13997;48.902;12.472;2022-12-18T09:14:39;90.30;2176.00
26272;DHT22;13997;48.902;12.472;2022-12-18T09:17:05;90.30;2176.00
26272;DHT22;13997;48.902;12.472;2022-12-18T09:19:30;90.30;2176.00
26272;DHT22;13997;48.902;12.472;2022-12-18T09:21:56;90.30;2176.00
26272;DHT22;13997;48.902;12.472;2022-12-18T09:24:23;90.30;2176.00
26272;DHT22;13997;48.902;12.472;2022-12-18T09:26:52;90.30;2176.00
26272;DHT22;13997;48.902;12.472;2022-12-18T09:29:18;90.20;2176.00
26272;DHT22;13997;48.902;12.472;2022-12-18T09:31:43;90.30;2176.00
26272;DHT22;13997;48.902;12.472;2022-12-18T09:34:09;90.40;2176.00
26272;DHT22;13997;48.902;12.472;2022-12-18T09:36:35;90.40;2176.00
26272;DHT22;13997;48.902;12.472;2022-12-18T09:39:00;90.40;2176.00
26272;DHT22;13997;48.902;12.472;2022-12-18T09:41:55;90.40;2176.00
26272;DHT22;13997;48.902;12.472;2022-12-18T09:46:58;90.40;2176.00
26272;DHT22;13997;48.902;12.472;2022-12-18T09:49:29;90.40;2176.00
26272;DHT22;13997;48.902;12.472;2022-12-18T09:52:08;90.30;2176.00
26272;DHT22;13997;48.902;12.472;2022-12-18T09:54:49;90.30;2176.00
26272;DHT22;13997;48.902;12.472;2022-12-18T09:57:20;90.20;2176.00
26272;DHT22;13997;48.902;12.472;2022-12-18T09:59:54;90.20;2176.00
26272;DHT22;13997;48.902;12.472;2022-12-18T10:02:22;90.20;2176.00
26272;DHT22;13997;48.902;12.472;2022-12-18T10:05:11;90.10;2176.00
26272;DHT22;13997;48.902;12.472;2022-12-18T10:10:23;90.10;2176.00
26272;DHT22;13997;48.902;12.472;2022-12-18T10:15:33;90.00;2176.00
26272;DHT22;13997;48.902;12.472;2022-12-18T10:21:11;89.90;2176.00
26272;DHT22;13997;48.902;12.472;2022-12-18T10:26:10;89.80;2176.00
26272;DHT22;13997;48.902;12.472;2022-12-18T10:28:39;89.70;2176.00
26272;DHT22;13997;48.902;12.472;2022-12-18T10:31:17;89.80;2176.00
26272;DHT22;13997;48.902;12.472;2022-12-18T10:33:43;89.90;2176.00
26272;DHT22;13997;48.902;12.472;2022-12-18T10:36:09;89.90;2176.00
26272;DHT22;13997;48.902;12.472;2022-12-18T10:38:35;89.90;2176.00
26272;DHT22;13997;48.902;12.472;2022-12-18T10:41:07;90.00;2176.00
26272;DHT22;13997;48.902;12.472;2022-12-18T10:43:39;89.90;2176.00
26272;DHT22;13997;48.902;12.472;2022-12-18T10:51:45;89.60;2201.60
26272;DHT22;13997;48.902;12.472;2022-12-18T10:54:23;89.80;2176.00
26272;DHT22;13997;48.902;12.472;2022-12-18T10:56:50;89.80;2176.00
26272;DHT22;13997;48.902;12.472;2022-12-18T10:59:17;89.80;2176.00
26272;DHT22;13997;48.902;12.472;2022-12-18T11:01:54;89.70;2176.00
26272;DHT22;13997;48.902;12.472;2022-12-18T11:04:29;89.80;2176.00
26272;DHT22;13997;48.902;12.472;2022-12-18T11:09:28;89.90;2176.00
26272;DHT22;13997;48.902;12.472;2022-12-18T11:11:58;89.80;2176.00
26272;DHT22;13997;48.902;12.472;2022-12-18T11:17:32;89.90;2176.00
26272;DHT22;13997;48.902;12.472;2022-12-18T11:20:01;89.80;2176.00
26272;DHT22;13997;48.902;12.472;2022-12-18T11:22:31;89.90;2176.00
26272;DHT22;13997;48.902;12.472;2022-12-18T11:25:05;89.80;2176.00
26272;DHT22;13997;48.902;12.472;2022-12-18T11:27:32;89.70;2176.00
26272;DHT22;13997;48.902;12.472;2022-12-18T11:30:13;89.60;2201.60
26272;DHT22;13997;48.902;12.472;2022-12-18T11:33:06;64.90;2201.60
26272;DHT22;13997;48.902;12.472;2022-12-18T11:35:42;64.90;2201.60
26272;DHT22;13997;48.902;12.472;2022-12-18T11:38:23;64.70;2201.60
26272;DHT22;13997;48.902;12.472;2022-12-18T11:43:56;64.30;2201.60
26272;DHT22;13997;48.902;12.472;2022-12-18T11:46:49;64.40;2201.60
26272;DHT22;13997;48.902;12.472;2022-12-18T11:49:26;64.60;2201.60
26272;DHT22;13997;48.902;12.472;2022-12-18T11:52:04;64.60;2201.60
26272;DHT22;13997;48.902;12.472;2022-12-18T11:54:33;64.50;2201.60
26272;DHT22;13997;48.902;12.472;2022-12-18T12:07:45;64.20;2201.60
26272;DHT22;13997;48.902;12.472;2022-12-18T12:10:32;64.20;2201.60
26272;DHT22;13997;48.902;12.472;2022-12-18T12:15:45;64.30;2201.60
26272;DHT22;13997;48.902;12.472;2022-12-18T12:18:54;64.50;2201.60
26272;DHT22;13997;48.902;12.472;2022-12-18T12:21:40;64.60;2201.60
26272;DHT22;13997;48.902;12.472;2022-12-18T12:40:20;64.90;2201.60
26272;DHT22;13997;48.902;12.472;2022-12-18T12:42:55;64.90;2201.60
26272;DHT22;13997;48.902;12.472;2022-12-18T12:51:33;64.90;2201.60
26272;DHT22;13997;48.902;12.472;2022-12-18T12:54:02;64.90;2201.60
26272;DHT22;13997;48.902;12.472;2022-12-18T12:56:44;64.80;2201.60
26272;DHT22;13997;48.902;12.472;2022-12-18T13:02:41;64.90;2201.60
26272;DHT22;13997;48.902;12.472;2022-12-18T13:05:43;89.60;2201.60
26272;DHT22;13997;48.902;12.472;2022-12-18T13:08:12;64.90;2201.60
26272;DHT22;13997;48.902;12.472;2022-12-18T13:10:47;64.90;2201.60
26272;DHT22;13997;48.902;12.472;2022-12-18T13:13:14;64.80;2201.60
26272;DHT22;13997;48.902;12.472;2022-12-18T13:15:49;64.90;2201.60
26272;DHT22;13997;48.902;12.472;2022-12-18T13:18:28;64.80;2201.60
26272;DHT22;13997;48.902;12.472;2022-12-18T13:25:49;64.70;2201.60
26272;DHT22;13997;48.902;12.472;2022-12-18T13:31:10;64.80;2201.60
26272;DHT22;13997;48.902;12.472;2022-12-18T13:36:44;64.70;2201.60
26272;DHT22;13997;48.902;12.472;2022-12-18T13:41:50;64.60;2201.60
26272;DHT22;13997;48.902;12.472;2022-12-18T13:44:32;64.60;2201.60
26272;DHT22;13997;48.902;12.472;2022-12-18T13:47:00;64.70;2201.60
26272;DHT22;13997;48.902;12.472;2022-12-18T13:49:37;64.70;2201.60
26272;DHT22;13997;48.902;12.472;2022-12-18T13:52:17;64.70;2201.60
26272;DHT22;13997;48.902;12.472;2022-12-18T13:54:49;64.70;2201.60
26272;DHT22;13997;48.902;12.472;2022-12-18T13:57:45;64.70;2201.60
26272;DHT22;13997;48.902;12.472;2022-12-18T14:02:49;64.80;2201.60
26272;DHT22;13997;48.902;12.472;2022-12-18T14:07:52;64.80;2201.60
26272;DHT22;13997;48.902;12.472;2022-12-18T14:10:19;64.80;2201.60
26272;DHT22;13997;48.902;12.472;2022-12-18T14:12:47;64.90;2201.60
26272;DHT22;13997;48.902;12.472;2022-12-18T14:20:34;64.90;2201.60
26272;DHT22;13997;48.902;12.472;2022-12-18T14:23:00;89.60;2201.60
26272;DHT22;13997;48.902;12.472;2022-12-18T14:25:27;89.60;2201.60
26272;DHT22;13997;48.902;12.472;2022-12-18T14:30:28;89.70;2176.00
26272;DHT22;13997;48.902;12.472;2022-12-18T14:33:06;89.80;2176.00
26272;DHT22;13997;48.902;12.472;2022-12-18T14:35:57;89.80;2176.00
26272;DHT22;13997;48.902;12.472;2022-12-18T14:38:34;89.90;2176.00
26272;DHT22;13997;48.902;12.472;2022-12-18T14:41:03;89.90;2176.00
26272;DHT22;13997;48.902;12.472;2022-12-18T14:43:32;90.00;2176.00
26272;DHT22;13997;48.902;12.472;2022-12-18T14:45:59;90.00;2176.00
26272;DHT22;13997;48.902;12.472;2022-12-18T14:48:36;90.00;2176.00
26272;DHT22;13997;48.902;12.472;2022-12-18T14:51:05;90.00;2176.00
26272;DHT22;13997;48.902;12.472;2022-12-18T14:53:33;90.10;2176.00
26272;DHT22;13997;48.902;12.472;2022-12-18T14:56:00;90.10;2176.00
26272;DHT22;13997;48.902;12.472;2022-12-18T14:58:26;90.20;2176.00
26272;DHT22;13997;48.902;12.472;2022-12-18T15:00:51;90.20;2176.00
26272;DHT22;13997;48.902;12.472;2022-12-18T15:03:21;90.30;2176.00
26272;DHT22;13997;48.902;12.472;2022-12-18T15:05:47;90.40;2176.00
26272;DHT22;13997;48.902;12.472;2022-12-18T15:08:36;90.40;2176.00
26272;DHT22;13997;48.902;12.472;2022-12-18T15:11:02;90.40;2176.00
26272;DHT22;13997;48.902;12.472;2022-12-18T15:13:28;90.50;2176.00
26272;DHT22;13997;48.902;12.472;2022-12-18T15:15:57;90.50;2176.00
26272;DHT22;13997;48.902;12.472;2022-12-18T15:18:31;90.50;2176.00
26272;DHT22;13997;48.902;12.472;2022-12-18T15:21:11;115.20;2176.00
26272;DHT22;13997;48.902;12.472;2022-12-18T15:26:10;115.30;2176.00
26272;DHT22;13997;48.902;12.472;2022-12-18T15:31:05;115.40;2176.00
26272;DHT22;13997;48.902;12.472;2022-12-18T15:33:33;115.40;2176.00
26272;DHT22;13997;48.902;12.472;2022-12-18T15:36:05;115.40;2176.00
26272;DHT22;13997;48.902;12.472;2022-12-18T15:38:33;115.50;2176.00
26272;DHT22;13997;48.902;12.472;2022-12-18T15:41:02;115.40;2176.00
26272;DHT22;13997;48.902;12.472;2022-12-18T15:43:28;115.50;2176.00
26272;DHT22;13997;48.902;12.472;2022-12-18T15:46:21;115.40;2176.00
26272;DHT22;13997;48.902;12.472;2022-12-18T15:48:51;115.40;2176.00
26272;DHT22;13997;48.902;12.472;2022-12-18T15:51:40;115.40;2176.00
26272;DHT22;13997;48.902;12.472;2022-12-18T15:54:10;115.40;2176.00
26272;DHT22;13997;48.902;12.472;2022-12-18T15:56:37;115.50;2176.00
26272;DHT22;13997;48.902;12.472;2022-12-18T15:59:22;115.50;2176.00
26272;DHT22;13997;48.902;12.472;2022-12-18T16:01:50;115.50;2176.00
26272;DHT22;13997;48.902;12.472;2022-12-18T16:04:18;115.50;2176.00
26272;DHT22;13997;48.902;12.472;2022-12-18T16:06:47;115.40;2176.00
26272;DHT22;13997;48.902;12.472;2022-12-18T16:09:13;115.40;2176.00
26272;DHT22;13997;48.902;12.472;2022-12-18T16:11:42;115.40;2176.00
26272;DHT22;13997;48.902;12.472;2022-12-18T16:14:21;115.40;2176.00
26272;DHT22;13997;48.902;12.472;2022-12-18T16:16:49;115.40;2176.00
26272;DHT22;13997;48.902;12.472;2022-12-18T16:19:15;115.50;2176.00
26272;DHT22;13997;48.902;12.472;2022-12-18T16:21:42;115.50;2176.00
26272;DHT22;13997;48.902;12.472;2022-12-18T16:24:20;115.60;2176.00
26272;DHT22;13997;48.902;12.472;2022-12-18T16:26:47;115.60;2176.00
26272;DHT22;13997;48.902;12.472;2022-12-18T16:29:13;115.60;2176.00
26272;DHT22;13997;48.902;12.472;2022-12-18T16:31:39;115.60;2176.00
26272;DHT22;13997;48.902;12.472;2022-12-18T16:34:17;115.60;2176.00
26272;DHT22;13997;48.902;12.472;2022-12-18T16:36:44;115.60;2176.00
26272;DHT22;13997;48.902;12.472;2022-12-18T16:39:10;115.70;2176.00
26272;DHT22;13997;48.902;12.472;2022-12-18T16:41:36;115.80;2176.00
26272;DHT22;13997;48.902;12.472;2022-12-18T16:44:02;115.80;2176.00
26272;DHT22;13997;48.902;12.472;2022-12-18T16:46:30;115.90;2176.00
26272;DHT22;13997;48.902;12.472;2022-12-18T16:48:59;115.90;2176.00
26272;DHT22;13997;48.902;12.472;2022-12-18T16:51:26;116.00;2176.00
26272;DHT22;13997;48.902;12.472;2022-12-18T16:53:53;116.10;2176.00
26272;DHT22;13997;48.902;12.472;2022-12-18T16:56:19;140.80;2176.00
26272;DHT22;13997;48.902;12.472;2022-12-18T16:58:53;140.80;2176.00